Time;durP1;ratioP1;P1;durP2;ratioP2;P2;SDS_P1;SDS_P2;PMS_P1;PMS_P2;Temp;Humidity;BMP_temperature;BMP_pressure;BME280_temperature;BME280_humidity;BME280_pressure;Samples;Min_cycle;Max_cycle;Signal;HPM_P1;HPM_P2
2022/08/05 00:00:33;;;;;;;7.00;1.30;;;23.00;99.90;;;;;;4935199;29;20032;-85
2022/08/05 00:02:59;;;;;;;6.95;1.38;;;22.90;99.90;;;;;;4935307;29;20075;-84
2022/08/05 00:05:25;;;;;;;8.02;1.73;;;23.00;99.90;;;;;;4934969;29;20494;-85
2022/08/05 00:07:51;;;;;;;4.80;1.17;;;22.80;99.90;;;;;;4935086;29;20027;-84
2022/08/05 00:10:16;;;;;;;5.10;1.20;;;22.80;99.90;;;;;;4935127;29;20269;-84
2022/08/05 00:12:42;;;;;;;7.28;1.50;;;22.70;99.90;;;;;;4933613;29;20054;-85
2022/08/05 00:15:08;;;;;;;7.60;1.52;;;22.70;99.90;;;;;;4933572;29;20058;-85
2022/08/05 00:17:34;;;;;;;5.20;1.30;;;22.60;99.90;;;;;;4935096;29;20082;-85
2022/08/05 00:19:59;;;;;;;7.20;1.50;;;22.60;99.90;;;;;;4934537;29;20057;-85
2022/08/05 00:22:25;;;;;;;8.13;1.50;;;22.50;99.90;;;;;;4917580;29;20396;-84
2022/08/05 00:24:50;;;;;;;7.28;1.30;;;22.50;99.90;;;;;;4934603;29;20036;-84
2022/08/05 00:27:16;;;;;;;6.80;1.88;;;22.40;99.90;;;;;;4934680;29;20031;-85
2022/08/05 00:29:42;;;;;;;7.50;1.75;;;22.30;99.90;;;;;;4934617;29;20052;-85
2022/08/05 00:32:11;;;;;;;7.93;1.80;;;22.40;99.90;;;;;;4934640;29;20119;-84
2022/08/05 00:34:38;;;;;;;5.00;1.38;;;22.30;99.90;;;;;;4934736;29;20028;-84
2022/08/05 00:37:04;;;;;;;6.05;1.48;;;22.10;99.90;;;;;;4934491;29;20028;-84
2022/08/05 00:39:29;;;;;;;5.82;1.67;;;22.10;99.90;;;;;;4934408;29;20059;-84
2022/08/05 00:41:55;;;;;;;7.57;1.40;;;22.00;99.90;;;;;;4934419;29;20030;-85
2022/08/05 00:44:21;;;;;;;8.75;1.52;;;22.00;99.90;;;;;;4934289;29;20034;-84
2022/08/05 00:46:47;;;;;;;6.65;1.42;;;21.90;99.90;;;;;;4934390;29;20024;-85
2022/08/05 00:49:12;;;;;;;5.15;1.20;;;21.90;99.90;;;;;;4917115;29;20027;-85
2022/08/05 00:51:38;;;;;;;8.73;1.48;;;21.90;99.90;;;;;;4917098;29;20016;-85
2022/08/05 00:54:04;;;;;;;5.60;1.42;;;21.90;99.90;;;;;;4934308;29;20488;-85
2022/08/05 00:56:29;;;;;;;12.30;1.75;;;21.90;99.90;;;;;;4933537;29;20066;-84
2022/08/05 00:58:55;;;;;;;4.40;1.42;;;21.90;99.90;;;;;;4934097;29;20028;-84
2022/08/05 01:01:21;;;;;;;3.75;1.77;;;21.80;99.90;;;;;;4934410;29;20074;-85
2022/08/05 01:03:46;;;;;;;6.35;1.58;;;21.70;99.90;;;;;;4934181;29;20032;-85
2022/08/05 01:06:13;;;;;;;7.00;1.90;;;21.70;99.90;;;;;;4933840;29;20069;-84
2022/08/05 01:08:39;;;;;;;9.38;2.83;;;21.70;99.90;;;;;;4933788;29;20428;-85
2022/08/05 01:11:21;;;;;;;9.70;3.25;;;21.50;99.90;;;;;;4933836;29;20031;-85
2022/08/05 01:14:10;;;;;;;9.05;3.60;;;21.50;99.90;;;;;;4933649;29;20019;-84
2022/08/05 01:16:43;;;;;;;9.80;4.88;;;21.50;99.90;;;;;;4933653;29;20104;-85
2022/08/05 01:19:34;;;;;;;8.57;4.30;;;21.50;99.90;;;;;;4933771;29;20551;-84
2022/08/05 01:22:21;;;;;;;11.05;4.20;;;21.50;99.90;;;;;;4916366;29;20026;-85
2022/08/05 01:24:49;;;;;;;10.63;4.05;;;21.50;99.90;;;;;;4930056;29;20028;-84
2022/08/05 01:27:24;;;;;;;7.90;3.42;;;21.40;99.90;;;;;;4932462;29;20040;-84
2022/08/05 01:29:53;;;;;;;7.75;3.47;;;21.30;99.90;;;;;;4933465;29;20511;-84
2022/08/05 01:32:23;;;;;;;6.65;2.33;;;21.30;99.90;;;;;;4933782;29;20028;-85
2022/08/05 01:35:01;;;;;;;6.53;2.03;;;21.30;99.90;;;;;;4933363;29;20034;-84
2022/08/05 01:37:48;;;;;;;5.70;1.90;;;21.20;99.90;;;;;;4933125;29;20373;-84
2022/08/05 01:40:16;;;;;;;8.18;1.75;;;21.10;99.90;;;;;;4928710;29;20257;-84
2022/08/05 01:42:44;;;;;;;7.70;2.00;;;21.10;99.90;;;;;;4933316;29;20032;-84
2022/08/05 01:45:12;;;;;;;10.40;1.88;;;21.00;99.90;;;;;;4933226;29;20027;-85
2022/08/05 01:47:39;;;;;;;5.43;1.90;;;21.00;99.90;;;;;;4933637;29;20103;-85
2022/08/05 01:50:08;;;;;;;5.90;1.35;;;21.00;99.90;;;;;;4933157;29;20015;-85
2022/08/05 01:52:37;;;;;;;7.30;1.50;;;21.00;99.90;;;;;;4932913;29;20502;-85
2022/08/05 01:55:07;;;;;;;8.77;1.40;;;21.00;99.90;;;;;;4933482;29;20376;-85
2022/08/05 01:57:40;;;;;;;4.53;1.73;;;20.90;99.90;;;;;;4933328;29;20508;-84
2022/08/05 02:00:10;;;;;;;4.20;1.70;;;20.90;99.90;;;;;;4932931;29;20011;-85
2022/08/05 02:02:42;;;;;;;7.88;1.45;;;20.90;99.90;;;;;;4932947;29;20126;-85
2022/08/05 02:05:12;;;;;;;7.10;1.65;;;20.90;99.90;;;;;;4933166;29;20035;-84
2022/08/05 02:07:41;;;;;;;5.80;1.30;;;20.90;99.90;;;;;;4932137;29;20035;-85
2022/08/05 02:10:08;;;;;;;6.22;1.60;;;20.90;99.90;;;;;;4932999;29;20399;-85
2022/08/05 02:12:53;;;;;;;6.50;1.33;;;20.80;99.90;;;;;;4932740;29;20028;-85
2022/08/05 02:15:33;;;;;;;4.43;1.30;;;20.70;99.90;;;;;;4915048;29;20024;-85
2022/08/05 02:18:18;;;;;;;5.78;1.42;;;20.70;99.90;;;;;;4927382;29;20107;-84
2022/08/05 02:20:55;;;;;;;4.95;1.52;;;20.70;99.90;;;;;;4932651;29;20034;-85
2022/08/05 02:23:24;;;;;;;3.92;1.25;;;20.70;99.90;;;;;;4932538;29;20491;-85
2022/08/05 02:25:52;;;;;;;5.75;1.45;;;20.70;99.90;;;;;;4932491;29;20055;-85
2022/08/05 02:28:28;;;;;;;5.18;1.20;;;20.70;99.90;;;;;;4932690;29;20094;-85
2022/08/05 02:31:01;;;;;;;7.72;1.48;;;20.60;99.90;;;;;;4932170;29;20139;-84
2022/08/05 02:33:31;;;;;;;6.32;1.50;;;20.60;99.90;;;;;;4932435;29;20421;-85
2022/08/05 02:35:58;;;;;;;3.38;1.33;;;20.60;99.90;;;;;;4932581;29;20023;-85
2022/08/05 02:38:27;;;;;;;5.43;1.55;;;20.60;99.90;;;;;;4932496;29;20445;-85
2022/08/05 02:40:54;;;;;;;7.93;1.70;;;20.60;99.90;;;;;;4932472;29;20451;-85
2022/08/05 02:43:22;;;;;;;4.47;1.13;;;20.50;99.90;;;;;;4932530;29;20568;-85
2022/08/05 02:45:49;;;;;;;5.75;1.55;;;20.60;99.90;;;;;;4931947;29;20042;-84
2022/08/05 02:48:16;;;;;;;4.60;1.30;;;20.50;99.90;;;;;;4932351;29;20024;-85
2022/08/05 02:50:46;;;;;;;5.15;1.40;;;20.50;99.90;;;;;;4932271;29;20504;-85
2022/08/05 02:53:13;;;;;;;6.28;1.52;;;20.50;99.90;;;;;;4932441;29;20028;-84
2022/08/05 02:55:39;;;;;;;6.50;1.48;;;20.50;99.90;;;;;;4932319;29;20049;-84
2022/08/05 02:58:05;;;;;;;8.27;1.58;;;20.50;99.90;;;;;;4932234;29;20536;-85
2022/08/05 03:00:33;;;;;;;7.88;1.35;;;20.50;99.90;;;;;;4932397;29;20083;-85
2022/08/05 03:03:00;;;;;;;3.47;1.13;;;20.50;99.90;;;;;;4931993;29;20032;-85
2022/08/05 03:05:27;;;;;;;3.42;1.25;;;20.40;99.90;;;;;;4932148;29;20289;-85
2022/08/05 03:07:53;;;;;;;4.72;1.08;;;20.50;99.90;;;;;;4932372;29;20028;-85
2022/08/05 03:10:19;;;;;;;3.75;1.30;;;20.50;99.90;;;;;;4932185;29;20114;-84
2022/08/05 03:12:46;;;;;;;5.32;1.30;;;20.40;99.90;;;;;;4932362;29;20028;-84
2022/08/05 03:15:11;;;;;;;4.95;1.10;;;20.30;99.90;;;;;;4932274;29;20125;-85
2022/08/05 03:17:37;;;;;;;3.97;1.23;;;20.20;99.90;;;;;;4932304;29;20027;-85
2022/08/05 03:20:05;;;;;;;4.65;1.10;;;20.20;99.90;;;;;;4935465;29;20516;-84
2022/08/05 03:22:30;;;;;;;4.78;1.30;;;20.30;99.90;;;;;;4934232;29;20035;-84
2022/08/05 03:24:57;;;;;;;3.22;1.38;;;20.30;99.90;;;;;;4935841;29;20035;-84
2022/08/05 03:27:23;;;;;;;7.13;1.30;;;20.30;99.90;;;;;;4935678;29;20023;-85
2022/08/05 03:29:49;;;;;;;3.72;1.27;;;20.40;99.90;;;;;;4935611;29;20043;-85
2022/08/05 03:32:15;;;;;;;7.65;1.30;;;20.40;99.90;;;;;;4935961;29;20036;-84
2022/08/05 03:34:42;;;;;;;6.70;1.52;;;20.30;99.90;;;;;;4935769;29;20028;-85
2022/08/05 03:37:08;;;;;;;3.42;1.20;;;20.30;99.90;;;;;;4935701;29;20393;-84
2022/08/05 03:39:34;;;;;;;4.40;1.10;;;20.20;99.90;;;;;;4935455;29;20020;-84
2022/08/05 03:41:59;;;;;;;5.18;1.20;;;20.20;99.90;;;;;;4935560;29;20024;-84
2022/08/05 03:44:25;;;;;;;4.25;1.08;;;19.90;99.90;;;;;;4935132;29;20028;-84
2022/08/05 03:46:51;;;;;;;5.65;1.58;;;19.90;99.90;;;;;;4935953;29;20019;-84
2022/08/05 03:49:17;;;;;;;3.55;1.30;;;19.90;99.90;;;;;;4934210;29;20539;-84
2022/08/05 03:51:59;;;;;;;4.85;1.17;;;19.90;99.90;;;;;;4935169;29;20024;-84
2022/08/05 03:54:47;;;;;;;5.75;1.13;;;20.00;99.90;;;;;;4935551;29;20024;-85
2022/08/05 03:57:15;;;;;;;9.38;1.42;;;20.00;99.90;;;;;;4933390;29;20509;-84
2022/08/05 03:59:44;;;;;;;6.28;1.10;;;20.10;99.90;;;;;;4934795;29;20411;-84
2022/08/05 04:02:11;;;;;;;3.78;0.88;;;20.10;99.90;;;;;;4917996;29;20412;-84
2022/08/05 04:04:38;;;;;;;6.68;1.67;;;20.00;99.90;;;;;;4935585;29;20507;-84
2022/08/05 04:07:05;;;;;;;6.97;1.60;;;20.00;99.90;;;;;;4935262;29;20070;-84
2022/08/05 04:09:31;;;;;;;3.08;0.90;;;20.00;99.90;;;;;;4935256;29;20178;-84
2022/08/05 04:11:57;;;;;;;3.53;1.00;;;20.00;99.90;;;;;;4935057;29;20284;-84
2022/08/05 04:14:25;;;;;;;7.40;1.00;;;20.00;99.90;;;;;;4934858;29;20110;-85
2022/08/05 04:16:51;;;;;;;4.57;2.00;;;19.90;99.90;;;;;;4934852;29;20020;-85
2022/08/05 04:19:17;;;;;;;4.43;1.20;;;19.90;99.90;;;;;;4934745;29;20400;-84
2022/08/05 04:21:43;;;;;;;4.95;1.00;;;19.90;99.90;;;;;;4934757;29;20029;-84
2022/08/05 04:24:08;;;;;;;4.65;1.00;;;19.80;99.90;;;;;;4935092;29;20114;-85
2022/08/05 04:26:34;;;;;;;5.32;1.30;;;19.90;99.90;;;;;;4935053;29;20035;-85
2022/08/05 04:29:00;;;;;;;3.85;1.08;;;19.80;99.90;;;;;;4934740;29;20514;-85
2022/08/05 04:31:26;;;;;;;8.35;1.15;;;19.70;99.90;;;;;;4933884;29;20595;-84
2022/08/05 04:33:51;;;;;;;4.75;0.90;;;19.80;99.90;;;;;;4934410;29;20027;-85
2022/08/05 04:36:18;;;;;;;6.18;1.20;;;19.70;99.90;;;;;;4934592;29;20036;-84
2022/08/05 04:38:44;;;;;;;5.40;1.38;;;19.70;99.90;;;;;;4934299;29;20051;-84
2022/08/05 04:41:10;;;;;;;5.25;1.13;;;19.70;99.90;;;;;;4934625;29;20020;-84
2022/08/05 04:43:37;;;;;;;6.90;1.20;;;19.70;99.90;;;;;;4934145;29;20039;-84
2022/08/05 04:46:03;;;;;;;5.00;1.30;;;19.70;99.90;;;;;;4934266;29;20496;-84
2022/08/05 04:48:29;;;;;;;5.07;1.20;;;19.70;99.90;;;;;;4934665;29;20020;-84
2022/08/05 04:50:55;;;;;;;4.70;1.15;;;19.70;99.90;;;;;;4934211;29;20028;-84
2022/08/05 04:53:21;;;;;;;3.67;1.42;;;19.80;99.90;;;;;;4934163;29;20016;-84
2022/08/05 04:55:47;;;;;;;3.72;1.17;;;19.80;99.90;;;;;;4934350;29;20036;-84
2022/08/05 04:58:16;;;;;;;8.70;1.33;;;19.70;99.90;;;;;;4932145;29;20036;-84
2022/08/05 05:00:42;;;;;;;4.80;1.25;;;19.70;99.90;;;;;;4933255;29;20100;-84
2022/08/05 05:03:09;;;;;;;5.43;1.20;;;19.60;99.90;;;;;;4933986;29;20310;-85
2022/08/05 05:05:36;;;;;;;6.20;1.00;;;19.60;99.90;;;;;;4933438;29;20084;-84
2022/08/05 05:08:09;;;;;;;5.07;1.38;;;19.60;99.90;;;;;;4934607;29;20023;-84
2022/08/05 05:10:41;;;;;;;5.75;1.25;;;19.60;99.90;;;;;;4932570;29;20031;-84
2022/08/05 05:13:10;;;;;;;5.85;1.42;;;19.50;99.90;;;;;;4933578;29;20095;-84
2022/08/05 05:15:37;;;;;;;7.70;1.30;;;19.50;99.90;;;;;;4933173;29;20039;-84
2022/08/05 05:18:02;;;;;;;4.53;1.42;;;19.60;99.90;;;;;;4933431;29;20511;-84
2022/08/05 05:20:29;;;;;;;5.88;1.27;;;19.70;99.90;;;;;;4933523;29;20019;-84
2022/08/05 05:22:55;;;;;;;5.63;1.20;;;19.70;99.90;;;;;;4933707;29;20024;-84
2022/08/05 05:25:21;;;;;;;5.55;1.42;;;19.60;99.90;;;;;;4933301;29;20079;-85
2022/08/05 05:27:47;;;;;;;3.55;1.00;;;19.70;99.90;;;;;;4933580;29;20106;-89
2022/08/05 05:30:14;;;;;;;4.78;1.20;;;19.70;99.90;;;;;;4933038;29;20420;-87
2022/08/05 05:32:39;;;;;;;4.20;1.20;;;19.70;99.90;;;;;;4935857;29;20444;-86
2022/08/05 05:35:05;;;;;;;5.53;1.38;;;19.70;99.90;;;;;;4935757;29;20024;-88
2022/08/05 05:37:31;;;;;;;6.35;1.80;;;19.70;99.90;;;;;;4935746;29;20095;-88
2022/08/05 05:39:57;;;;;;;2.60;0.95;;;19.60;99.90;;;;;;4938431;29;20020;-88
2022/08/05 05:42:22;;;;;;;5.82;1.67;;;19.60;99.90;;;;;;4933936;29;20083;-88
2022/08/05 05:44:48;;;;;;;4.60;1.40;;;19.60;99.90;;;;;;4932658;29;20027;-87
2022/08/05 05:47:13;;;;;;;10.20;1.60;;;19.60;99.90;;;;;;4915857;29;20035;-87
2022/08/05 05:49:39;;;;;;;3.05;1.20;;;19.60;99.90;;;;;;4932789;29;20020;-87
2022/08/05 05:52:05;;;;;;;5.03;1.10;;;19.60;99.90;;;;;;4933046;29;20028;-87
2022/08/05 05:54:31;;;;;;;13.80;1.67;;;19.60;99.90;;;;;;4933399;29;20016;-88
2022/08/05 05:56:56;;;;;;;4.35;1.20;;;19.70;99.90;;;;;;4932993;29;20016;-87
2022/08/05 05:59:23;;;;;;;8.80;1.80;;;19.70;99.90;;;;;;4933109;29;20395;-86
2022/08/05 06:01:48;;;;;;;4.78;1.25;;;19.60;99.90;;;;;;4933061;29;20051;-86
2022/08/05 06:04:14;;;;;;;6.40;1.42;;;19.60;99.90;;;;;;4933317;29;20067;-86
2022/08/05 06:06:42;;;;;;;3.60;1.30;;;19.70;99.90;;;;;;4932848;29;20046;-85
2022/08/05 06:09:08;;;;;;;4.90;1.15;;;19.70;99.90;;;;;;4933035;29;20019;-86
2022/08/05 06:11:34;;;;;;;6.43;1.23;;;19.80;99.90;;;;;;4915790;29;20028;-86
2022/08/05 06:14:00;;;;;;;3.75;1.30;;;19.80;99.90;;;;;;4932940;29;20031;-86
2022/08/05 06:16:26;;;;;;;8.77;1.30;;;19.80;99.90;;;;;;4932811;29;20028;-87
2022/08/05 06:18:51;;;;;;;4.93;1.30;;;19.80;99.90;;;;;;4933190;29;20024;-86
2022/08/05 06:21:17;;;;;;;4.97;1.25;;;19.90;99.90;;;;;;4931818;29;20135;-85
2022/08/05 06:23:43;;;;;;;5.65;1.55;;;19.90;99.90;;;;;;4932848;29;20257;-82
2022/08/05 06:26:08;;;;;;;5.65;2.10;;;20.00;99.90;;;;;;4934417;29;20638;-81
2022/08/05 06:28:35;;;;;;;5.57;2.67;;;20.00;99.90;;;;;;4932433;29;20437;-80
2022/08/05 06:31:01;;;;;;;26.58;16.42;;;20.00;99.90;;;;;;4932308;29;20119;-80
2022/08/05 06:33:27;;;;;;;17.15;9.75;;;20.10;99.90;;;;;;4932676;29;20138;-79
2022/08/05 06:35:52;;;;;;;7.57;4.07;;;20.20;99.90;;;;;;4932298;29;20031;-80
2022/08/05 06:38:18;;;;;;;76.50;35.70;;;20.30;99.90;;;;;;4940100;29;20031;-80
2022/08/05 06:40:44;;;;;;;13.60;4.88;;;20.20;99.90;;;;;;4942870;29;20031;-79
2022/08/05 06:43:09;;;;;;;7.50;3.47;;;20.10;99.90;;;;;;4943312;29;20062;-80
2022/08/05 06:45:35;;;;;;;4.82;1.42;;;20.20;99.90;;;;;;4941569;29;20349;-80
2022/08/05 06:48:04;;;;;;;5.28;1.00;;;20.20;99.90;;;;;;4942993;29;20028;-80
2022/08/05 06:50:29;;;;;;;6.15;1.27;;;20.20;99.90;;;;;;4942436;29;20027;-80
2022/08/05 06:52:55;;;;;;;2.58;0.90;;;20.20;99.90;;;;;;4943774;29;20362;-80
2022/08/05 06:55:21;;;;;;;2.63;1.13;;;20.30;99.90;;;;;;4950097;29;20264;-79
2022/08/05 06:57:46;;;;;;;11.18;1.38;;;20.30;99.90;;;;;;4948613;29;20058;-79
2022/08/05 07:00:12;;;;;;;5.78;1.30;;;20.50;99.90;;;;;;4949876;29;20047;-79
2022/08/05 07:02:44;;;;;;;5.03;1.15;;;20.60;99.90;;;;;;4949720;29;20024;-79
2022/08/05 07:05:10;;;;;;;4.97;1.00;;;20.70;99.90;;;;;;4948932;29;20031;-78
2022/08/05 07:07:39;;;;;;;3.58;0.80;;;20.70;99.90;;;;;;4949614;29;20059;-79
2022/08/05 07:10:07;;;;;;;6.85;1.13;;;20.80;99.90;;;;;;4949515;29;20087;-79
2022/08/05 07:18:02;;;;;;;5.40;1.30;;;21.30;99.90;;;;;;4944260;29;20049;-79
2022/08/05 07:20:27;;;;;;;5.93;1.33;;;21.30;99.80;;;;;;4949483;29;20315;-78
2022/08/05 07:22:53;;;;;;;4.63;1.08;;;21.30;99.70;;;;;;4948686;29;20335;-78
2022/08/05 07:25:19;;;;;;;4.57;0.93;;;21.40;99.70;;;;;;4949289;29;20031;-79
2022/08/05 07:27:44;;;;;;;2.22;0.77;;;21.50;99.40;;;;;;4948525;29;20058;-76
2022/08/05 07:30:10;;;;;;;6.55;1.17;;;21.50;99.10;;;;;;4948685;29;20438;-76
2022/08/05 07:32:37;;;;;;;5.18;0.88;;;21.60;99.30;;;;;;4949198;29;20082;-76
2022/08/05 07:35:08;;;;;;;4.97;0.77;;;21.60;99.30;;;;;;4947843;29;20122;-79
2022/08/05 07:37:33;;;;;;;5.68;1.70;;;21.70;98.90;;;;;;4938205;29;20020;-78
2022/08/05 07:39:59;;;;;;;6.32;1.23;;;21.70;98.90;;;;;;4938483;29;20038;-79
2022/08/05 07:42:24;;;;;;;5.38;0.80;;;21.70;98.40;;;;;;4938385;29;20020;-76
2022/08/05 07:44:50;;;;;;;5.40;1.00;;;21.70;98.30;;;;;;4938293;29;20054;-76
2022/08/05 07:47:16;;;;;;;5.93;1.15;;;21.70;98.00;;;;;;4938565;29;20032;-75
2022/08/05 07:49:41;;;;;;;4.57;1.17;;;21.70;98.40;;;;;;4938393;29;20023;-76
2022/08/05 07:52:07;;;;;;;4.15;0.90;;;21.60;98.20;;;;;;4938412;29;20083;-83
2022/08/05 07:54:33;;;;;;;4.50;1.00;;;21.70;98.20;;;;;;4938227;29;20043;-83
2022/08/05 07:56:59;;;;;;;4.40;0.90;;;21.80;97.70;;;;;;4938255;29;20026;-83
2022/08/05 07:59:25;;;;;;;5.63;1.10;;;21.90;97.90;;;;;;4936775;29;20088;-83
2022/08/05 08:01:51;;;;;;;5.75;1.20;;;21.90;97.30;;;;;;4938176;29;20031;-83
2022/08/05 08:04:16;;;;;;;4.55;0.80;;;22.00;97.50;;;;;;4937659;29;20396;-87
2022/08/05 08:06:42;;;;;;;6.75;1.15;;;22.00;97.30;;;;;;4935532;29;20038;-81
2022/08/05 08:09:07;;;;;;;3.15;0.80;;;22.20;96.70;;;;;;4936882;29;20086;-84
2022/08/05 08:11:33;;;;;;;4.95;0.90;;;22.30;96.40;;;;;;4935178;29;20031;-83
2022/08/05 08:13:59;;;;;;;3.47;0.80;;;22.40;96.20;;;;;;4941675;29;20127;-82
2022/08/05 08:16:24;;;;;;;2.45;0.73;;;22.50;96.00;;;;;;4934941;29;20107;-81
2022/08/05 08:18:50;;;;;;;6.53;0.60;;;22.60;95.30;;;;;;4934680;29;20066;-81
2022/08/05 08:21:16;;;;;;;3.35;0.90;;;22.50;95.10;;;;;;4934718;29;20500;-81
2022/08/05 08:23:41;;;;;;;4.50;0.50;;;22.60;95.10;;;;;;4934648;29;20026;-81
2022/08/05 08:26:07;;;;;;;2.78;0.77;;;22.60;95.10;;;;;;4934767;29;20492;-81
2022/08/05 08:28:33;;;;;;;2.58;0.63;;;22.80;95.20;;;;;;4934440;29;20107;-81
2022/08/05 08:30:58;;;;;;;4.60;0.70;;;22.90;94.30;;;;;;4934413;29;20051;-80
2022/08/05 08:33:24;;;;;;;3.25;0.60;;;22.90;94.70;;;;;;4934772;29;20026;-80
2022/08/05 08:35:49;;;;;;;5.90;0.93;;;23.00;94.20;;;;;;4934392;29;20031;-80
2022/08/05 08:38:15;;;;;;;3.90;0.85;;;23.00;93.70;;;;;;4934577;29;20030;-81
2022/08/05 08:40:42;;;;;;;3.22;0.60;;;23.00;93.60;;;;;;4934736;29;20500;-80
2022/08/05 08:43:11;;;;;;;3.22;0.70;;;23.00;94.10;;;;;;4934513;29;20016;-81
2022/08/05 08:45:37;;;;;;;5.57;0.95;;;23.20;93.40;;;;;;4934319;29;20072;-80
2022/08/05 08:48:06;;;;;;;4.60;0.75;;;23.20;93.10;;;;;;4916854;29;20107;-80
2022/08/05 08:50:33;;;;;;;1.38;0.60;;;23.10;93.20;;;;;;4916933;29;20055;-81
2022/08/05 08:53:06;;;;;;;4.32;0.85;;;23.20;93.50;;;;;;4934267;29;20011;-80
2022/08/05 08:55:33;;;;;;;6.43;1.05;;;23.20;93.10;;;;;;4934100;29;20381;-80
2022/08/05 08:58:02;;;;;;;2.28;0.70;;;23.30;92.90;;;;;;4934205;29;20062;-80
2022/08/05 09:00:28;;;;;;;4.72;0.82;;;23.40;92.90;;;;;;4934034;29;20016;-80
2022/08/05 09:02:56;;;;;;;3.92;0.90;;;23.40;92.90;;;;;;4934070;29;20420;-81
2022/08/05 09:05:22;;;;;;;5.88;1.23;;;23.40;92.80;;;;;;4934173;29;20095;-79
2022/08/05 09:07:51;;;;;;;5.10;0.63;;;23.60;92.50;;;;;;4939224;29;20027;-80
2022/08/05 09:10:17;;;;;;;5.85;0.70;;;23.70;92.40;;;;;;4942250;29;20032;-80
2022/08/05 09:12:43;;;;;;;2.47;0.80;;;23.70;92.20;;;;;;4943293;29;20424;-82
2022/08/05 09:15:09;;;;;;;3.55;0.60;;;23.80;92.40;;;;;;4935701;29;20039;-80
2022/08/05 09:17:35;;;;;;;2.30;0.75;;;24.10;92.20;;;;;;4933840;29;20512;-80
2022/08/05 09:20:03;;;;;;;3.75;0.70;;;24.20;92.00;;;;;;4933710;29;20273;-80
2022/08/05 09:22:48;;;;;;;1.80;0.70;;;24.40;91.60;;;;;;4933803;29;20035;-80
2022/08/05 09:25:18;;;;;;;2.80;0.88;;;24.50;91.60;;;;;;4933830;29;20043;-81
2022/08/05 09:27:43;;;;;;;2.85;0.80;;;24.80;91.50;;;;;;4933840;29;20076;-80
2022/08/05 09:30:09;;;;;;;3.58;0.90;;;25.20;91.00;;;;;;4933337;29;20457;-80
2022/08/05 09:32:36;;;;;;;2.42;0.50;;;25.40;90.90;;;;;;4933414;29;20099;-81
2022/08/05 09:35:14;;;;;;;3.28;0.80;;;25.60;90.80;;;;;;4933439;29;20035;-80
2022/08/05 09:37:50;;;;;;;3.67;0.50;;;25.80;90.10;;;;;;4933623;29;20506;-80
2022/08/05 09:40:34;;;;;;;2.78;0.77;;;25.90;89.40;;;;;;4927909;29;20436;-80
2022/08/05 09:43:00;;;;;;;4.55;0.70;;;26.10;89.50;;;;;;4933290;29;20028;-80
2022/08/05 09:45:37;;;;;;;4.32;0.80;;;26.20;89.70;;;;;;4933115;29;20020;-80
2022/08/05 09:48:24;;;;;;;2.45;0.57;;;26.10;88.10;;;;;;4933278;29;20024;-81
2022/08/05 09:50:52;;;;;;;7.05;1.00;;;26.10;88.80;;;;;;4934757;29;20031;-81
2022/08/05 09:53:18;;;;;;;2.42;0.90;;;26.10;88.40;;;;;;4933112;29;20055;-78
2022/08/05 09:55:44;;;;;;;3.53;0.73;;;26.00;88.40;;;;;;4933093;29;20072;-79
2022/08/05 09:58:12;;;;;;;1.80;0.80;;;25.80;88.40;;;;;;4933070;29;20035;-80
2022/08/05 10:00:38;;;;;;;5.88;0.88;;;25.80;88.90;;;;;;4932834;29;20024;-80
2022/08/05 10:03:10;;;;;;;4.45;1.67;;;25.80;88.90;;;;;;4932780;29;20395;-78
2022/08/05 10:05:40;;;;;;;3.10;1.15;;;25.80;88.40;;;;;;4932934;29;20035;-79
2022/08/05 10:08:06;;;;;;;2.70;1.15;;;25.90;88.20;;;;;;4934273;29;20488;-79
2022/08/05 10:10:47;;;;;;;3.72;2.28;;;26.00;88.20;;;;;;4933447;29;20054;-80
2022/08/05 10:13:32;;;;;;;6.95;2.15;;;26.00;87.70;;;;;;4932601;29;20027;-80
2022/08/05 10:15:59;;;;;;;4.30;1.13;;;26.00;88.20;;;;;;4932929;29;20058;-79
2022/08/05 10:18:26;;;;;;;5.10;0.70;;;26.00;88.40;;;;;;4932580;29;20019;-79
2022/08/05 10:21:03;;;;;;;4.10;0.80;;;26.00;88.80;;;;;;4934212;29;20111;-79
2022/08/05 10:23:33;;;;;;;3.83;0.82;;;26.00;87.00;;;;;;4935433;29;20027;-80
2022/08/05 10:26:02;;;;;;;4.72;1.38;;;26.00;87.20;;;;;;4932656;29;20027;-80
2022/08/05 10:28:29;;;;;;;4.97;1.75;;;26.00;87.70;;;;;;4931820;29;20032;-79
2022/08/05 10:30:55;;;;;;;4.22;0.82;;;26.10;88.30;;;;;;4932588;29;20036;-79
2022/08/05 10:33:22;;;;;;;3.58;0.80;;;26.30;87.60;;;;;;4932453;29;20076;-79
2022/08/05 10:35:49;;;;;;;5.53;0.73;;;26.30;86.90;;;;;;4932279;29;20103;-79
2022/08/05 10:38:17;;;;;;;2.85;0.70;;;26.30;86.80;;;;;;4932467;29;20094;-80
2022/08/05 10:40:48;;;;;;;4.03;0.70;;;26.40;86.40;;;;;;4934616;29;20355;-80
2022/08/05 10:43:35;;;;;;;7.20;0.90;;;26.40;86.50;;;;;;4936625;29;20035;-79
2022/08/05 10:46:04;;;;;;;4.63;1.00;;;26.50;87.20;;;;;;4939153;29;20035;-79
2022/08/05 10:48:40;;;;;;;4.20;0.85;;;26.60;87.40;;;;;;4931890;29;20237;-80
2022/08/05 10:51:14;;;;;;;4.93;0.93;;;26.80;85.80;;;;;;4931714;29;20030;-79
2022/08/05 10:53:43;;;;;;;7.03;1.13;;;27.00;85.80;;;;;;4931811;29;20519;-83
2022/08/05 10:56:15;;;;;;;4.45;0.80;;;26.90;84.90;;;;;;4932134;29;20095;-80
2022/08/05 10:58:53;;;;;;;2.38;0.55;;;27.10;84.80;;;;;;4931657;29;20023;-79
2022/08/05 11:01:40;;;;;;;3.15;0.70;;;27.20;84.90;;;;;;4932068;29;20024;-79
2022/08/05 11:04:08;;;;;;;3.22;0.80;;;27.20;84.20;;;;;;4932292;29;20024;-80
2022/08/05 11:06:35;;;;;;;4.15;0.80;;;27.10;84.90;;;;;;4932273;29;20040;-81
2022/08/05 11:09:37;;;;;;;7.57;0.82;;;27.10;84.50;;;;;;4932158;29;20039;-80
2022/08/05 11:12:03;;;;;;;3.67;0.80;;;27.20;84.40;;;;;;4901337;29;20038;-80
2022/08/05 11:14:37;;;;;;;3.83;1.00;;;27.30;84.80;;;;;;4931982;29;20095;-79
2022/08/05 11:17:18;;;;;;;;;;;27.30;83.90;;;;;;4932528;29;20551;-81
2022/08/05 11:19:45;;;;;;;4.78;0.73;;;27.50;83.10;;;;;;4926837;29;19907;-80
2022/08/05 11:22:43;;;;;;;3.08;0.88;;;27.70;84.10;;;;;;4932115;29;20110;-80
2022/08/05 11:25:44;;;;;;;6.03;1.05;;;27.80;83.00;;;;;;4920828;29;20139;-79
2022/08/05 11:28:13;;;;;;;3.33;0.95;;;27.90;83.30;;;;;;4928396;29;20148;-80
2022/08/05 11:30:56;;;;;;;1.92;0.60;;;28.00;83.60;;;;;;4931826;29;20047;-80
2022/08/05 11:33:36;;;;;;;6.82;0.90;;;28.20;81.90;;;;;;4932098;29;20066;-79
2022/08/05 11:36:03;;;;;;;2.88;0.70;;;28.20;82.10;;;;;;4931788;29;20066;-80
2022/08/05 11:38:38;;;;;;;3.25;0.88;;;28.20;81.80;;;;;;4932788;29;20027;-81
2022/08/05 11:41:05;;;;;;;5.45;0.88;;;28.20;81.70;;;;;;4935290;29;20038;-81
2022/08/05 11:43:32;;;;;;;4.68;0.50;;;28.30;81.20;;;;;;4935750;29;20028;-81
2022/08/05 11:45:58;;;;;;;6.53;0.90;;;28.50;81.40;;;;;;4935348;29;20512;-80
2022/08/05 11:48:25;;;;;;;3.72;0.80;;;28.60;81.40;;;;;;4935651;29;20020;-80
2022/08/05 11:50:52;;;;;;;4.13;1.05;;;28.70;82.30;;;;;;4928597;29;20039;-81
2022/08/05 11:53:18;;;;;;;4.00;0.70;;;29.00;81.40;;;;;;4934760;29;20028;-82
2022/08/05 11:56:01;;;;;;;3.88;0.90;;;29.00;79.90;;;;;;4935841;29;20500;-84
2022/08/05 11:58:33;;;;;;;2.63;0.70;;;29.00;80.80;;;;;;4933670;29;20028;-80
2022/08/05 12:01:04;;;;;;;4.53;1.10;;;28.90;80.00;;;;;;4935079;29;20028;-81
2022/08/05 12:03:39;;;;;;;4.45;1.10;;;28.90;81.40;;;;;;4934374;29;20062;-81
2022/08/05 12:06:04;;;;;;;6.78;0.77;;;29.10;80.50;;;;;;4934041;29;20427;-81
2022/08/05 12:08:30;;;;;;;2.55;0.63;;;29.30;80.80;;;;;;4934722;29;20114;-81
2022/08/05 12:10:59;;;;;;;3.75;0.70;;;29.50;80.60;;;;;;4934742;29;20614;-81
2022/08/05 12:13:25;;;;;;;6.13;0.82;;;29.60;79.70;;;;;;4933328;29;20035;-81
2022/08/05 12:15:50;;;;;;;2.17;0.60;;;29.80;78.80;;;;;;4935024;29;20024;-81
2022/08/05 12:18:31;;;;;;;9.35;1.08;;;29.60;78.90;;;;;;4934969;29;20030;-80
2022/08/05 12:21:28;;;;;;;5.00;0.90;;;29.50;78.90;;;;;;4935207;29;20012;-81
2022/08/05 12:24:02;;;;;;;6.35;0.70;;;29.50;80.00;;;;;;4934324;29;20043;-80
2022/08/05 12:26:34;;;;;;;4.82;0.80;;;29.90;79.00;;;;;;4934680;29;20098;-81
2022/08/05 12:29:01;;;;;;;9.48;1.00;;;29.70;77.90;;;;;;4934479;29;20020;-80
2022/08/05 12:31:27;;;;;;;3.33;0.90;;;29.60;79.00;;;;;;4932858;29;20451;-80
2022/08/05 12:33:53;;;;;;;2.58;0.77;;;29.80;79.00;;;;;;4934283;29;20023;-81
2022/08/05 12:36:20;;;;;;;5.88;1.13;;;30.00;78.50;;;;;;4934292;29;20051;-81
2022/08/05 12:38:46;;;;;;;4.60;0.80;;;30.20;78.10;;;;;;4934517;29;20459;-81
2022/08/05 12:41:13;;;;;;;6.75;0.90;;;30.20;77.50;;;;;;4934493;29;20584;-80
2022/08/05 12:43:55;;;;;;;2.42;0.90;;;30.10;77.20;;;;;;4934384;29;20082;-80
2022/08/05 12:46:25;;;;;;;4.38;0.88;;;29.90;78.50;;;;;;4934515;29;20055;-81
2022/08/05 12:49:07;;;;;;;4.90;0.90;;;29.80;77.80;;;;;;4934211;29;20102;-81
2022/08/05 12:51:55;;;;;;;5.28;0.75;;;29.90;77.40;;;;;;4933353;29;20070;-81
2022/08/05 12:54:27;;;;;;;6.47;0.85;;;30.00;77.20;;;;;;4929463;29;20488;-81
2022/08/05 12:56:59;;;;;;;4.85;1.00;;;30.20;76.80;;;;;;4934489;29;20020;-80
2022/08/05 12:59:41;;;;;;;4.53;0.80;;;30.20;77.30;;;;;;4934250;29;20028;-81